Airport View

Enter AWOS ICAO identifier for current METAR.

ex. KFNL

KUOX 170915Z AUTO 00000KT 10SM CLR M02/M03 A3011 RMK AO2

17 Nov 2019 09:23

Frequency: 132.725

Phone: 662-234-9751

Other Area AWOS: KPMU - KOLV - KTUP - KUTA

TAF KTUP 170535Z 1706/1806 VRB03KT P6SM SKC FM171700 24005KT P6SM SKC FM180000 00000KT P6SM OVC250